Time;durP1;ratioP1;P1;durP2;ratioP2;P2;SDS_P1;SDS_P2;PMS_P1;PMS_P2;Temp;Humidity;BMP_temperature;BMP_pressure;BME280_temperature;BME280_humidity;BME280_pressure;Samples;Min_cycle;Max_cycle;Signal;HPM_P1;HPM_P2
2022/08/26 00:10:02;;;;;;;8.90;3.70;;;;;;;20.22;54.65;99452.13;431595;1271;141749;-63
2022/08/26 00:20:12;;;;;;;6.50;3.10;;;;;;;20.06;54.93;99447.91;431109;1271;142604;-62
2022/08/26 00:30:22;;;;;;;4.00;2.90;;;;;;;19.88;55.31;99446.60;431915;1271;147900;-62
2022/08/26 00:40:32;;;;;;;7.80;3.50;;;;;;;19.67;56.08;99437.73;431262;1271;141106;-63
2022/08/26 00:50:42;;;;;;;7.20;3.10;;;;;;;19.53;56.42;99433.16;430841;1271;141936;-61
2022/08/26 01:00:48;;;;;;;7.40;3.60;;;;;;;19.41;56.68;99436.58;430924;1274;141604;-62
2022/08/26 01:10:56;;;;;;;5.60;3.40;;;;;;;19.27;56.92;99442.20;430428;1271;147634;-62
2022/08/26 01:21:11;;;;;;;4.40;3.00;;;;;;;19.13;57.51;99447.61;431451;1271;147084;-62
2022/08/26 01:31:20;;;;;;;9.00;3.20;;;;;;;19.01;57.68;99444.15;431070;1271;141558;-63
2022/08/26 01:41:27;;;;;;;11.60;3.80;;;;;;;18.95;57.89;99445.85;430283;1271;142524;-62
2022/08/26 01:51:35;;;;;;;5.10;3.30;;;;;;;18.80;58.25;99443.59;431371;1271;146609;-62
2022/08/26 02:01:42;;;;;;;9.70;3.90;;;;;;;18.73;58.23;99445.67;431382;1271;141954;-62
2022/08/26 02:11:49;;;;;;;8.20;3.50;;;;;;;18.65;58.34;99439.77;431785;1271;142003;-61
2022/08/26 02:21:58;;;;;;;11.60;3.40;;;;;;;18.53;59.12;99441.79;431509;1271;140646;-62
2022/08/26 02:32:08;;;;;;;7.20;2.90;;;;;;;18.47;58.97;99438.39;430677;1271;165726;-62
2022/08/26 02:42:15;;;;;;;8.60;3.70;;;;;;;18.38;59.21;99437.98;431634;1271;142030;-61
2022/08/26 02:52:21;;;;;;;9.50;4.20;;;;;;;18.30;59.44;99437.35;431789;1271;142334;-62
2022/08/26 03:02:27;;;;;;;7.00;4.50;;;;;;;18.20;59.67;99437.98;430973;1271;148165;-64
2022/08/26 03:12:33;;;;;;;8.00;3.70;;;;;;;18.11;59.85;99431.09;431558;1271;142842;-63
2022/08/26 03:22:40;;;;;;;6.60;3.40;;;;;;;18.03;60.06;99428.42;431297;1271;142395;-63
2022/08/26 03:32:46;;;;;;;6.80;4.10;;;;;;;17.99;60.18;99421.91;431536;1271;143892;-62
2022/08/26 03:42:52;;;;;;;11.70;4.00;;;;;;;17.94;60.34;99424.05;431190;1271;143226;-61
2022/08/26 03:52:58;;;;;;;7.20;3.10;;;;;;;17.91;60.56;99420.91;430478;1271;143031;-63
2022/08/26 04:03:05;;;;;;;9.10;4.40;;;;;;;17.95;60.69;99422.14;431422;1271;143512;-63
2022/08/26 04:13:14;;;;;;;10.30;4.60;;;;;;;18.09;60.67;99421.70;431444;1271;145928;-61
2022/08/26 04:23:21;;;;;;;9.20;4.40;;;;;;;18.34;60.60;99423.52;430547;1271;144435;-62
2022/08/26 04:33:27;;;;;;;10.50;5.30;;;;;;;18.67;60.33;99421.86;431392;1271;143447;-62
2022/08/26 04:43:38;;;;;;;14.00;4.70;;;;;;;19.05;59.93;99422.25;431187;1271;142474;-63
2022/08/26 04:53:44;;;;;;;7.30;3.80;;;;;;;19.53;59.43;99423.58;431318;1271;142695;-63
2022/08/26 05:03:50;;;;;;;8.70;4.50;;;;;;;20.07;58.50;99422.27;431411;1271;143435;-63
2022/08/26 05:13:56;;;;;;;11.40;4.20;;;;;;;20.63;57.78;99419.27;430712;1271;143056;-62
2022/08/26 05:24:10;;;;;;;8.70;4.20;;;;;;;22.67;56.34;99424.66;430912;1271;143007;-64
2022/08/26 05:34:16;;;;;;;6.80;3.80;;;;;;;29.82;48.41;99429.02;432372;1271;141904;-60
2022/08/26 05:44:25;;;;;;;5.50;3.30;;;;;;;34.72;40.74;99431.23;430017;1271;142055;-63
2022/08/26 05:54:32;;;;;;;12.00;3.80;;;;;;;37.99;36.11;99430.34;430935;1270;146888;-61
2022/08/26 06:04:38;;;;;;;8.20;3.70;;;;;;;40.12;32.06;99431.39;431267;1271;141634;-61
2022/08/26 06:14:44;;;;;;;8.10;3.80;;;;;;;42.25;29.54;99428.86;430859;1271;141527;-62
2022/08/26 06:35:17;;;;;;;8.80;3.10;;;;;;;46.34;24.81;99426.65;429115;1271;1345681;-62
2022/08/26 06:45:23;;;;;;;5.00;2.90;;;;;;;48.10;22.85;99418.77;430745;1271;145774;-61
2022/08/26 06:55:29;;;;;;;8.50;3.30;;;;;;;49.17;21.58;99414.55;430844;1271;142276;-61
2022/08/26 07:05:35;;;;;;;6.70;3.20;;;;;;;50.79;20.30;99412.94;430001;1271;141020;-61
2022/08/26 07:15:44;;;;;;;5.70;3.00;;;;;;;52.24;18.94;99414.23;431519;1270;142313;-61
2022/08/26 07:25:50;;;;;;;6.10;4.90;;;;;;;51.62;17.51;99413.12;430382;1270;146043;-61
2022/08/26 07:35:56;;;;;;;4.80;3.60;;;;;;;50.97;16.78;99409.83;431213;1270;141648;-62
2022/08/26 07:46:06;;;;;;;5.90;4.00;;;;;;;50.42;16.58;99408.69;431219;1270;141551;-64
2022/08/26 07:56:12;;;;;;;5.40;3.70;;;;;;;51.41;16.35;99403.41;430557;1271;141057;-61
2022/08/26 08:06:18;;;;;;;5.70;5.10;;;;;;;52.36;15.62;99403.98;431093;1271;141117;-61
2022/08/26 08:16:25;;;;;;;5.00;4.60;;;;;;;51.11;15.81;99403.33;431305;1271;142015;-61
2022/08/26 08:26:33;;;;;;;5.20;3.50;;;;;;;51.79;15.84;99397.80;430424;1271;200931;-61
2022/08/26 08:36:40;;;;;;;9.10;2.80;;;;;;;49.44;16.03;99399.48;431242;1271;199114;-62
2022/08/26 08:46:50;;;;;;;8.30;4.20;;;;;;;42.07;19.06;99397.80;430601;1271;152442;-64
2022/08/26 08:57:02;;;;;;;5.20;2.50;;;;;;;37.84;22.33;99393.38;432028;1271;141426;-62
2022/08/26 09:07:16;;;;;;;5.00;2.70;;;;;;;35.30;24.44;99395.79;431195;1271;144564;-62
2022/08/26 09:17:32;;;;;;;10.20;3.00;;;;;;;33.64;25.88;99400.95;430708;1271;144712;-63
2022/08/26 09:27:44;;;;;;;7.60;2.50;;;;;;;32.73;27.35;99400.98;430900;1272;188241;-63
2022/08/26 09:37:50;;;;;;;5.30;2.80;;;;;;;32.02;27.88;99392.17;430045;1271;141927;-61
2022/08/26 09:48:01;;;;;;;5.30;2.70;;;;;;;31.24;29.01;99378.36;430874;1271;143112;-63
2022/08/26 09:58:12;;;;;;;5.40;2.10;;;;;;;30.87;29.55;99373.64;431570;1271;143157;-63
2022/08/26 10:08:24;;;;;;;6.50;2.70;;;;;;;30.67;29.55;99369.43;430183;1271;143625;-61
2022/08/26 10:18:37;;;;;;;2.90;2.20;;;;;;;30.51;30.48;99360.40;431731;1271;144644;-63
2022/08/26 10:28:48;;;;;;;4.40;3.30;;;;;;;30.62;31.33;99351.55;431191;1271;142958;-63
2022/08/26 10:38:54;;;;;;;3.70;2.70;;;;;;;30.75;31.57;99345.83;430867;1271;209857;-61
2022/08/26 10:49:05;;;;;;;6.00;2.70;;;;;;;30.50;31.26;99338.49;430820;1271;142147;-62
2022/08/26 10:59:26;;;;;;;4.40;2.50;;;;;;;30.32;31.44;99329.90;430041;1271;142598;-61
2022/08/26 11:09:47;;;;;;;6.20;2.50;;;;;;;30.15;31.65;99322.27;431475;1271;142035;-61
2022/08/26 11:20:04;;;;;;;3.60;2.00;;;;;;;29.93;31.17;99307.25;430398;1271;141875;-62
2022/08/26 11:30:51;;;;;;;3.30;2.30;;;;;;;29.82;31.01;99303.26;431139;1271;142322;-65
2022/08/26 11:41:08;;;;;;;5.10;2.20;;;;;;;29.76;31.35;99292.77;429745;1271;196509;-61
2022/08/26 11:51:23;;;;;;;4.40;2.50;;;;;;;29.74;30.83;99295.55;431059;1271;147480;-62
2022/08/26 12:01:34;;;;;;;4.30;2.30;;;;;;;29.66;30.92;99287.47;431015;1271;141863;-64
2022/08/26 12:11:41;;;;;;;6.50;3.20;;;;;;;29.64;30.75;99281.27;430269;1270;146659;-61
2022/08/26 12:21:56;;;;;;;3.70;2.30;;;;;;;29.69;30.53;99272.42;431232;1271;143676;-61
2022/08/26 12:32:12;;;;;;;3.90;1.90;;;;;;;29.79;30.46;99260.64;429975;1272;144865;-62
2022/08/26 12:42:40;;;;;;;2.80;2.00;;;;;;;29.87;29.75;99257.92;431260;1270;142049;-62
2022/08/26 12:52:57;;;;;;;5.50;2.30;;;;;;;29.92;29.17;99242.55;430298;1271;141830;-63
2022/08/26 13:03:03;;;;;;;4.30;2.20;;;;;;;29.94;29.15;99240.39;431650;1271;142266;-63
2022/08/26 13:13:10;;;;;;;5.50;3.00;;;;;;;29.96;29.29;99231.84;431766;1271;146377;-64
2022/08/26 13:23:16;;;;;;;5.30;2.10;;;;;;;29.95;29.56;99208.95;430494;1271;142799;-63
2022/08/26 13:33:22;;;;;;;5.50;2.40;;;;;;;30.01;29.78;99202.11;431011;1271;141456;-64
2022/08/26 13:43:29;;;;;;;2.70;2.30;;;;;;;30.11;29.87;99195.48;430960;1271;142674;-61
2022/08/26 13:53:34;;;;;;;12.70;3.00;;;;;;;30.11;29.98;99188.83;430418;1271;144424;-62
2022/08/26 14:03:41;;;;;;;7.40;3.10;;;;;;;30.03;30.01;99181.50;430930;1271;142834;-61
2022/08/26 14:13:47;;;;;;;8.70;3.90;;;;;;;29.82;31.83;99182.05;430337;1271;153072;-64
2022/08/26 14:23:54;;;;;;;5.40;2.90;;;;;;;29.62;32.87;99173.63;431726;1271;140934;-63
2022/08/26 14:34:08;;;;;;;11.00;5.40;;;;;;;29.47;33.64;99169.28;431573;1271;142987;-62
2022/08/26 14:44:16;;;;;;;5.70;3.80;;;;;;;29.29;33.97;99164.92;431497;1271;142253;-62
2022/08/26 14:54:22;;;;;;;6.70;4.00;;;;;;;29.13;34.42;99158.30;430857;1271;142588;-62
2022/08/26 15:04:29;;;;;;;5.70;4.20;;;;;;;28.98;34.79;99153.13;431740;1271;142821;-62
2022/08/26 15:14:34;;;;;;;;;;;;;;;28.94;35.29;99137.99;431848;1271;141091;-62
2022/08/26 15:24:40;;;;;;;5.00;3.50;;;;;;;28.91;35.53;99133.85;431689;1271;127687;-62
2022/08/26 15:34:46;;;;;;;5.10;4.00;;;;;;;28.84;35.62;99129.58;437897;1271;142642;-61
2022/08/26 15:44:54;;;;;;;6.60;3.40;;;;;;;28.80;35.21;99126.71;437810;1271;143693;-61
2022/08/26 15:55:00;;;;;;;9.40;4.20;;;;;;;28.74;35.36;99115.95;431088;1271;142801;-61
2022/08/26 16:05:08;;;;;;;4.90;3.70;;;;;;;28.61;35.74;99126.25;430372;1271;142683;-61
2022/08/26 16:15:14;;;;;;;4.60;3.30;;;;;;;28.48;36.19;99125.85;432036;1271;144870;-64
2022/08/26 16:25:21;;;;;;;6.00;3.90;;;;;;;28.32;36.68;99120.44;431079;1271;141911;-61
2022/08/26 16:35:27;;;;;;;6.50;3.80;;;;;;;28.15;37.25;99116.69;431055;1271;143344;-62
2022/08/26 16:45:36;;;;;;;10.70;5.70;;;;;;;27.97;37.93;99110.78;431246;1271;141713;-62
2022/08/26 16:55:48;;;;;;;6.60;3.90;;;;;;;27.83;38.61;99113.92;431062;1271;142744;-63
2022/08/26 17:05:54;;;;;;;7.90;5.00;;;;;;;27.45;38.95;99114.25;431589;1272;142388;-62
2022/08/26 17:16:01;;;;;;;8.20;4.50;;;;;;;27.09;39.58;99119.02;432132;1271;140898;-63
2022/08/26 17:26:10;;;;;;;7.90;4.80;;;;;;;26.71;40.40;99117.52;431261;1271;146564;-61
2022/08/26 17:36:14;;;;;;;;;;;;;;;26.33;41.11;99120.20;431297;1272;143393;-63
2022/08/26 17:46:20;;;;;;;8.60;4.80;;;;;;;25.94;42.07;99123.83;431697;1271;127832;-62
2022/08/26 17:56:29;;;;;;;11.40;5.70;;;;;;;25.60;43.01;99123.17;430761;1274;142676;-62
2022/08/26 18:06:35;;;;;;;7.60;5.00;;;;;;;25.27;43.91;99124.27;431224;1271;141774;-62
2022/08/26 18:16:41;;;;;;;10.20;6.50;;;;;;;24.99;44.60;99121.23;431163;1271;141507;-63
2022/08/26 18:26:49;;;;;;;11.20;6.80;;;;;;;24.73;45.07;99126.91;430671;1271;145483;-62
2022/08/26 18:36:55;;;;;;;8.80;5.50;;;;;;;24.46;45.81;99121.11;429623;1271;1568882;-63
2022/08/26 18:47:01;;;;;;;10.70;6.70;;;;;;;24.19;46.40;99121.94;429999;1271;199476;-61
2022/08/26 18:57:07;;;;;;;11.00;5.60;;;;;;;23.96;47.03;99117.31;430669;1271;144206;-63
2022/08/26 19:07:13;;;;;;;9.50;6.10;;;;;;;23.81;47.09;99113.14;430401;1271;140496;-61
2022/08/26 19:17:19;;;;;;;6.40;5.40;;;;;;;23.70;46.98;99111.43;430812;1271;143626;-63
2022/08/26 19:27:28;;;;;;;8.60;6.20;;;;;;;23.62;47.14;99115.54;431017;1271;142508;-64
2022/08/26 19:37:34;;;;;;;8.70;5.50;;;;;;;23.68;46.60;99118.84;431431;1271;140223;-61
2022/08/26 19:47:41;;;;;;;7.50;5.70;;;;;;;23.75;46.22;99117.30;430409;1271;142393;-63
2022/08/26 19:57:46;;;;;;;6.20;5.00;;;;;;;23.67;45.97;99128.48;431722;1271;150349;-60
2022/08/26 20:07:53;;;;;;;5.80;5.30;;;;;;;23.70;45.23;99140.08;430202;1271;141751;-63
2022/08/26 20:17:58;;;;;;;9.70;6.00;;;;;;;23.63;45.37;99146.70;431638;1271;141529;-63
2022/08/26 20:28:05;;;;;;;8.00;5.40;;;;;;;23.47;45.52;99159.36;430615;1271;141801;-61
2022/08/26 20:38:11;;;;;;;6.70;6.10;;;;;;;23.28;45.76;99163.64;430911;1271;146454;-62
2022/08/26 20:48:17;;;;;;;9.80;5.20;;;;;;;23.06;46.29;99170.95;430796;1271;144201;-61
2022/08/26 20:58:24;;;;;;;6.70;6.10;;;;;;;22.83;46.69;99170.71;430660;1271;140750;-63
2022/08/26 21:08:30;;;;;;;8.20;6.00;;;;;;;22.73;47.02;99172.23;429611;1274;141639;-62
2022/08/26 21:18:38;;;;;;;7.10;5.70;;;;;;;22.71;46.75;99177.73;430450;1271;143338;-62
2022/08/26 21:28:45;;;;;;;6.40;5.30;;;;;;;22.71;46.70;99180.23;430034;1271;142881;-65
2022/08/26 21:38:51;;;;;;;6.40;5.80;;;;;;;22.64;46.74;99175.89;430645;1271;144556;-62
2022/08/26 21:48:59;;;;;;;9.70;6.10;;;;;;;22.58;46.79;99172.76;430585;1271;141707;-61
2022/08/26 21:59:05;;;;;;;5.90;4.80;;;;;;;22.48;46.71;99173.16;429703;1271;163519;-61
2022/08/26 22:09:13;;;;;;;7.70;5.90;;;;;;;22.34;46.93;99158.45;430823;1271;140566;-63
2022/08/26 22:19:21;;;;;;;5.90;5.40;;;;;;;22.18;47.06;99156.05;430525;1271;178804;-62
2022/08/26 22:29:28;;;;;;;6.40;5.20;;;;;;;22.03;47.34;99145.77;430756;1271;143661;-63
2022/08/26 22:39:34;;;;;;;6.60;5.80;;;;;;;21.86;47.51;99144.67;431064;1271;141719;-62
2022/08/26 22:49:40;;;;;;;8.70;6.50;;;;;;;21.69;47.78;99142.36;430761;1271;141788;-63
2022/08/26 22:59:47;;;;;;;6.60;5.00;;;;;;;21.54;48.10;99137.04;431397;1271;140811;-62
2022/08/26 23:09:52;;;;;;;6.30;5.50;;;;;;;21.44;48.25;99127.19;431015;1271;141913;-62
2022/08/26 23:19:58;;;;;;;8.80;5.40;;;;;;;21.62;48.23;99127.36;430770;1271;142311;-63
2022/08/26 23:30:05;;;;;;;5.90;5.30;;;;;;;21.48;48.32;99129.52;431492;1271;142060;-61
2022/08/26 23:40:16;;;;;;;8.60;6.30;;;;;;;21.53;48.32;99128.77;431480;1274;141990;-63
2022/08/26 23:53:04;;;;;;;10.50;5.60;;;;;;;21.21;48.69;99113.17;430505;1271;141705;-63
